Time;durP1;ratioP1;P1;durP2;ratioP2;P2;SDS_P1;SDS_P2;PMS_P1;PMS_P2;Temp;Humidity;BMP_temperature;BMP_pressure;BME280_temperature;BME280_humidity;BME280_pressure;Samples;Min_cycle;Max_cycle;Signal;HPM_P1;HPM_P2
2021/01/19 00:01:18;;;;;;;11.23;4.20;;;6.10;99.90;;;;;;4158495;28;20113;-82
2021/01/19 00:03:38;;;;;;;10.23;3.50;;;6.20;99.90;;;;;;4144272;28;20506;-82
2021/01/19 00:05:45;;;;;;;13.23;4.50;;;6.20;99.90;;;;;;4163655;28;20057;-82
2021/01/19 00:07:46;;;;;;;11.50;3.80;;;6.10;99.90;;;;;;4160273;28;20481;-82
2021/01/19 00:09:46;;;;;;;15.00;3.70;;;6.20;99.90;;;;;;4145927;28;20036;-82
2021/01/19 00:11:47;;;;;;;13.07;3.90;;;6.20;99.90;;;;;;4145499;28;20094;-82
2021/01/19 00:13:47;;;;;;;9.70;3.88;;;6.10;99.90;;;;;;4160247;28;20049;-82
2021/01/19 00:15:49;;;;;;;12.25;3.42;;;6.10;99.90;;;;;;4153412;28;20038;-82
2021/01/19 00:18:13;;;;;;;12.77;4.43;;;6.10;99.90;;;;;;4159689;28;20639;-82
2021/01/19 00:20:14;;;;;;;8.70;3.60;;;6.10;99.90;;;;;;4148304;28;20030;-82
2021/01/19 00:22:21;;;;;;;12.90;3.70;;;6.10;99.90;;;;;;4172684;28;20044;-82
2021/01/19 00:24:21;;;;;;;12.13;3.60;;;6.10;99.90;;;;;;4162154;28;20053;-82
2021/01/19 00:26:22;;;;;;;14.38;3.90;;;6.10;99.90;;;;;;4166827;28;20065;-82
2021/01/19 00:28:23;;;;;;;9.13;4.25;;;6.10;99.90;;;;;;4165894;28;20065;-82
2021/01/19 00:30:23;;;;;;;8.18;3.47;;;6.10;99.90;;;;;;4170918;28;20400;-83
2021/01/19 00:32:24;;;;;;;8.57;3.30;;;6.20;99.90;;;;;;4147442;28;20034;-82
2021/01/19 00:34:25;;;;;;;9.40;3.17;;;6.10;99.90;;;;;;4163818;28;20552;-82
2021/01/19 00:36:31;;;;;;;8.88;3.25;;;6.20;99.90;;;;;;4161407;28;20040;-82
2021/01/19 00:38:32;;;;;;;12.82;3.63;;;6.10;99.90;;;;;;4171230;28;20037;-82
2021/01/19 00:40:35;;;;;;;9.88;3.50;;;6.10;99.90;;;;;;4156029;28;20033;-81
2021/01/19 00:42:35;;;;;;;14.02;3.67;;;6.20;99.90;;;;;;4167784;28;20022;-81
2021/01/19 00:44:36;;;;;;;12.40;3.75;;;6.10;99.90;;;;;;4165163;28;20035;-81
2021/01/19 00:46:36;;;;;;;18.10;3.95;;;6.10;99.90;;;;;;4170765;28;20145;-81
2021/01/19 00:48:37;;;;;;;8.40;3.13;;;6.10;99.90;;;;;;4163203;28;20051;-82
2021/01/19 00:50:38;;;;;;;13.75;3.78;;;6.20;99.90;;;;;;4147749;28;20417;-82
2021/01/19 00:52:44;;;;;;;12.45;4.10;;;6.20;99.90;;;;;;4148049;28;20577;-81
2021/01/19 00:54:45;;;;;;;10.82;3.60;;;6.20;99.90;;;;;;4148167;28;20046;-81
2021/01/19 00:56:52;;;;;;;8.73;3.60;;;6.20;99.90;;;;;;4144609;28;20505;-81
2021/01/19 00:58:53;;;;;;;9.20;3.60;;;6.20;99.90;;;;;;4165546;28;20029;-81
2021/01/19 01:00:53;;;;;;;10.23;3.70;;;6.20;99.90;;;;;;4151789;28;20593;-81
2021/01/19 01:03:03;;;;;;;14.02;3.90;;;6.20;99.90;;;;;;4163935;28;20502;-81
2021/01/19 01:05:07;;;;;;;12.70;3.50;;;6.20;99.90;;;;;;4164234;28;20523;-81
2021/01/19 01:07:07;;;;;;;11.98;3.70;;;6.20;99.90;;;;;;4166496;28;20116;-81
2021/01/19 01:09:08;;;;;;;9.88;3.25;;;6.20;99.90;;;;;;4165978;28;20044;-81
2021/01/19 01:11:10;;;;;;;9.77;3.15;;;6.20;99.90;;;;;;4146659;28;20037;-81
2021/01/19 01:13:10;;;;;;;11.25;3.65;;;6.20;99.90;;;;;;4154564;28;20038;-81
2021/01/19 01:15:20;;;;;;;10.50;3.30;;;6.20;99.90;;;;;;4164552;28;20036;-81
2021/01/19 01:17:21;;;;;;;10.65;3.08;;;6.20;99.90;;;;;;4162433;28;20628;-81
2021/01/19 01:19:22;;;;;;;11.27;3.80;;;6.20;99.90;;;;;;4166072;28;20029;-82
2021/01/19 01:21:23;;;;;;;12.57;3.35;;;6.10;99.90;;;;;;4163235;28;20037;-82
2021/01/19 01:23:33;;;;;;;10.88;3.25;;;6.20;99.90;;;;;;4163509;28;20033;-81
2021/01/19 01:25:34;;;;;;;9.98;2.97;;;6.20;99.90;;;;;;4149197;28;20131;-81
2021/01/19 01:27:36;;;;;;;12.02;4.03;;;6.20;99.90;;;;;;4170575;28;20045;-81
2021/01/19 01:29:37;;;;;;;13.85;3.63;;;6.10;99.90;;;;;;4163569;28;20084;-81
2021/01/19 01:31:38;;;;;;;13.02;3.65;;;6.20;99.90;;;;;;4183194;28;20056;-81
2021/01/19 01:33:45;;;;;;;8.82;3.05;;;6.10;99.90;;;;;;4163408;28;20035;-81
2021/01/19 01:35:45;;;;;;;10.65;3.30;;;6.10;99.90;;;;;;4170859;28;20037;-81
2021/01/19 01:37:58;;;;;;;12.52;3.70;;;6.10;99.90;;;;;;4162579;28;20531;-82
2021/01/19 01:39:59;;;;;;;12.80;3.30;;;6.10;99.90;;;;;;4144383;28;20033;-81
2021/01/19 01:42:21;;;;;;;9.85;2.70;;;6.10;99.90;;;;;;4155302;28;20076;-81
2021/01/19 01:44:21;;;;;;;11.73;3.17;;;6.10;99.90;;;;;;4146330;28;20034;-81
2021/01/19 01:46:24;;;;;;;11.77;3.35;;;6.10;99.90;;;;;;4168028;28;20049;-81
2021/01/19 01:48:24;;;;;;;;;;;6.10;99.90;;;;;;4146596;28;20089;-81
2021/01/19 01:50:25;;;;;;;17.45;3.20;;;6.10;99.90;;;;;;4186160;28;19912;-81
2021/01/19 01:52:28;;;;;;;7.82;2.80;;;6.10;99.90;;;;;;4164057;28;20095;-80
2021/01/19 01:54:37;;;;;;;12.73;2.58;;;6.10;99.90;;;;;;4163000;28;20063;-81
2021/01/19 01:56:38;;;;;;;11.32;3.28;;;6.10;99.90;;;;;;4166732;28;20041;-81
2021/01/19 01:58:54;;;;;;;10.02;2.90;;;6.10;99.90;;;;;;4147009;28;20821;-81
2021/01/19 02:00:56;;;;;;;7.43;2.50;;;6.10;99.90;;;;;;4164863;28;20032;-81
2021/01/19 02:03:00;;;;;;;10.90;2.60;;;6.10;99.90;;;;;;4162901;28;20030;-81
2021/01/19 02:05:01;;;;;;;9.05;2.70;;;6.10;99.90;;;;;;4146411;28;20104;-81
2021/01/19 02:07:30;;;;;;;10.13;2.55;;;6.10;99.90;;;;;;4145644;28;20049;-81
2021/01/19 02:09:42;;;;;;;14.38;3.05;;;6.10;99.90;;;;;;4159598;28;20045;-81
2021/01/19 02:11:57;;;;;;;9.70;2.67;;;6.10;99.90;;;;;;4165636;28;20056;-81
2021/01/19 02:14:34;;;;;;;10.25;2.53;;;6.10;99.90;;;;;;4154847;28;20029;-81
2021/01/19 02:16:47;;;;;;;13.20;2.45;;;6.10;99.90;;;;;;4172657;28;20048;-81
2021/01/19 02:19:16;;;;;;;9.75;2.55;;;6.00;99.90;;;;;;4171367;28;20799;-81
2021/01/19 02:21:39;;;;;;;8.43;2.22;;;6.00;99.90;;;;;;4146908;28;20061;-82
2021/01/19 02:24:06;;;;;;;7.35;2.47;;;6.00;99.90;;;;;;4157003;28;20040;-82
2021/01/19 02:26:41;;;;;;;8.65;2.17;;;6.00;99.90;;;;;;4155796;28;20345;-81
2021/01/19 02:28:51;;;;;;;10.70;2.30;;;6.00;99.90;;;;;;4161068;28;20033;-81
2021/01/19 02:31:19;;;;;;;12.90;2.92;;;6.00;99.90;;;;;;4164112;28;20128;-81
2021/01/19 02:34:01;;;;;;;10.60;2.88;;;6.00;99.90;;;;;;4144830;28;20036;-81
2021/01/19 02:36:29;;;;;;;8.48;2.60;;;5.90;99.90;;;;;;4166657;28;20103;-81
2021/01/19 02:38:42;;;;;;;7.30;2.22;;;5.90;99.90;;;;;;4154208;28;20037;-81
2021/01/19 02:40:44;;;;;;;9.13;2.58;;;5.90;99.90;;;;;;4184722;28;20488;-81
2021/01/19 02:43:11;;;;;;;10.30;2.30;;;5.90;99.90;;;;;;4154413;28;20107;-81
2021/01/19 02:45:11;;;;;;;13.13;2.70;;;5.90;99.90;;;;;;4165260;28;20037;-81
2021/01/19 02:47:25;;;;;;;9.75;2.50;;;5.90;99.90;;;;;;4152391;28;20109;-81
2021/01/19 02:49:44;;;;;;;9.77;2.70;;;5.90;99.90;;;;;;4148564;28;20045;-81
2021/01/19 02:51:53;;;;;;;9.10;2.20;;;5.90;99.90;;;;;;4174206;28;20051;-82
2021/01/19 02:53:57;;;;;;;9.75;2.47;;;5.80;99.90;;;;;;4138211;28;20037;-81
2021/01/19 02:56:18;;;;;;;7.70;2.63;;;5.80;99.90;;;;;;4164723;28;20129;-81
2021/01/19 02:58:41;;;;;;;9.25;2.70;;;5.80;99.90;;;;;;4142953;28;20461;-81
2021/01/19 03:00:55;;;;;;;10.75;2.30;;;5.80;99.90;;;;;;4160544;28;20029;-81
2021/01/19 03:02:58;;;;;;;13.57;2.45;;;5.80;99.90;;;;;;4164013;28;20124;-81
2021/01/19 03:05:00;;;;;;;7.20;2.00;;;5.80;99.90;;;;;;4160898;28;20025;-81
2021/01/19 03:07:04;;;;;;;9.60;2.03;;;5.80;99.90;;;;;;4151805;28;20708;-81
2021/01/19 03:09:06;;;;;;;7.65;2.42;;;5.80;99.90;;;;;;4180994;28;20101;-80
2021/01/19 03:11:10;;;;;;;8.80;2.40;;;5.80;99.90;;;;;;4147575;28;20026;-80
2021/01/19 03:13:30;;;;;;;8.38;2.67;;;5.80;99.90;;;;;;4164596;28;20034;-81
2021/01/19 03:15:31;;;;;;;9.80;3.00;;;5.80;99.90;;;;;;4176991;28;20029;-81
2021/01/19 03:17:31;;;;;;;10.63;2.45;;;5.80;99.90;;;;;;4162878;28;20038;-81
2021/01/19 03:19:45;;;;;;;10.18;2.40;;;5.80;99.90;;;;;;4158873;28;20048;-81
2021/01/19 03:21:46;;;;;;;10.73;2.55;;;5.80;99.90;;;;;;4138415;28;20037;-81
2021/01/19 03:23:46;;;;;;;11.35;2.88;;;5.80;99.90;;;;;;4145129;28;20738;-81
2021/01/19 03:25:47;;;;;;;10.43;1.90;;;5.70;99.90;;;;;;4157994;28;20479;-81
2021/01/19 03:27:48;;;;;;;7.32;2.60;;;5.80;99.90;;;;;;4149936;28;20100;-81
2021/01/19 03:29:48;;;;;;;9.52;2.60;;;5.70;99.90;;;;;;4144783;28;20468;-81
2021/01/19 03:31:49;;;;;;;12.57;2.95;;;5.70;99.90;;;;;;4142693;28;20398;-82
2021/01/19 03:33:57;;;;;;;8.35;2.60;;;5.70;99.90;;;;;;4166182;28;20036;-81
2021/01/19 03:35:58;;;;;;;16.67;3.00;;;5.70;99.90;;;;;;4160189;28;20041;-81
2021/01/19 03:38:10;;;;;;;11.60;3.05;;;5.70;99.90;;;;;;4170447;28;20405;-81
2021/01/19 03:40:11;;;;;;;10.90;3.22;;;5.60;99.90;;;;;;4142437;28;20083;-81
2021/01/19 03:42:12;;;;;;;15.45;2.63;;;5.60;99.90;;;;;;4147528;28;20029;-81
2021/01/19 03:44:12;;;;;;;9.23;2.63;;;5.60;99.90;;;;;;4154739;28;20030;-81
2021/01/19 03:46:13;;;;;;;12.05;3.22;;;5.60;99.90;;;;;;4164606;28;20051;-81
2021/01/19 03:48:13;;;;;;;11.70;2.78;;;5.60;99.90;;;;;;4144271;28;20025;-81
2021/01/19 03:50:14;;;;;;;13.10;3.58;;;5.70;99.90;;;;;;4161203;28;20112;-81
2021/01/19 03:52:23;;;;;;;12.55;2.83;;;5.70;99.90;;;;;;4144603;28;20133;-81
2021/01/19 03:54:23;;;;;;;11.93;3.25;;;5.70;99.90;;;;;;4173872;28;20044;-81
2021/01/19 03:56:25;;;;;;;13.88;2.80;;;5.60;99.90;;;;;;4160930;28;20033;-81
2021/01/19 03:58:26;;;;;;;9.57;3.45;;;5.60;99.90;;;;;;4151600;28;20132;-81
2021/01/19 04:00:27;;;;;;;16.15;3.85;;;5.70;99.90;;;;;;4162307;28;20153;-81
2021/01/19 04:02:28;;;;;;;14.55;3.47;;;5.70;99.90;;;;;;4156542;28;20069;-81
2021/01/19 04:04:28;;;;;;;17.20;3.83;;;5.70;99.90;;;;;;4166357;28;20033;-81
2021/01/19 04:06:29;;;;;;;11.18;3.58;;;5.70;99.90;;;;;;4158989;28;20048;-81
2021/01/19 04:08:30;;;;;;;8.10;2.88;;;5.70;99.90;;;;;;4145613;28;20045;-81
2021/01/19 04:10:42;;;;;;;13.85;4.18;;;5.70;99.90;;;;;;4170792;28;20131;-81
2021/01/19 04:12:43;;;;;;;13.32;4.10;;;5.70;99.90;;;;;;4159013;28;20033;-81
2021/01/19 04:14:44;;;;;;;12.68;3.15;;;5.60;99.90;;;;;;4161284;28;20064;-81
2021/01/19 04:16:45;;;;;;;10.93;3.08;;;5.60;99.90;;;;;;4185953;28;20032;-81
2021/01/19 04:18:45;;;;;;;12.88;3.40;;;5.70;99.90;;;;;;4146942;28;20085;-81
2021/01/19 04:20:46;;;;;;;6.40;2.70;;;5.60;99.90;;;;;;4140918;28;20053;-81
2021/01/19 04:22:46;;;;;;;8.82;2.90;;;5.70;99.90;;;;;;4166849;28;20037;-81
2021/01/19 04:24:47;;;;;;;15.55;3.88;;;5.70;99.90;;;;;;4142617;28;20034;-81
2021/01/19 04:26:48;;;;;;;11.95;3.50;;;5.70;99.90;;;;;;4138630;28;20065;-81
2021/01/19 04:28:48;;;;;;;12.82;3.55;;;5.70;99.90;;;;;;4156711;28;20175;-81
2021/01/19 04:30:53;;;;;;;10.35;3.25;;;5.60;99.90;;;;;;4155093;28;20063;-81
2021/01/19 04:33:12;;;;;;;15.27;3.45;;;5.60;99.90;;;;;;4163161;28;20034;-81
2021/01/19 04:35:23;;;;;;;13.90;4.13;;;5.60;99.90;;;;;;4161620;28;20068;-81
2021/01/19 04:37:24;;;;;;;17.85;4.70;;;5.60;99.90;;;;;;4144375;28;20161;-81
2021/01/19 04:39:24;;;;;;;11.55;3.42;;;5.60;99.90;;;;;;4144934;28;20550;-81
2021/01/19 04:41:28;;;;;;;14.68;3.28;;;5.60;99.90;;;;;;4158991;28;20167;-81
2021/01/19 04:43:36;;;;;;;12.00;2.88;;;5.50;99.90;;;;;;4167386;28;20033;-81
2021/01/19 04:45:40;;;;;;;10.38;3.25;;;5.60;99.90;;;;;;4145570;28;20042;-81
2021/01/19 04:47:41;;;;;;;11.27;2.60;;;5.60;99.90;;;;;;4163949;28;20034;-81
2021/01/19 04:49:43;;;;;;;10.05;3.22;;;5.60;99.90;;;;;;4168579;28;20207;-81
2021/01/19 04:51:47;;;;;;;;;;;5.60;99.90;;;;;;4152581;28;20374;-81
2021/01/19 04:54:02;;;;;;;10.40;2.65;;;5.60;99.90;;;;;;4171737;28;19921;-81
2021/01/19 04:56:03;;;;;;;11.40;3.30;;;5.50;99.90;;;;;;4158197;28;20136;-81
2021/01/19 04:58:07;;;;;;;13.70;3.50;;;5.60;99.90;;;;;;4141075;28;20041;-81
2021/01/19 05:00:15;;;;;;;9.25;2.60;;;5.50;99.90;;;;;;4140874;28;20038;-81
2021/01/19 05:02:16;;;;;;;9.25;2.90;;;5.60;99.90;;;;;;4144721;28;20066;-81
2021/01/19 05:04:45;;;;;;;5.80;2.60;;;5.60;99.90;;;;;;4144822;28;20493;-81
2021/01/19 05:07:12;;;;;;;20.08;4.03;;;5.60;99.90;;;;;;4161135;28;20573;-81
2021/01/19 05:09:20;;;;;;;9.27;2.42;;;5.60;99.90;;;;;;4169771;28;20037;-81
2021/01/19 05:11:25;;;;;;;12.52;2.65;;;5.60;99.90;;;;;;4128096;28;20034;-81
2021/01/19 05:13:50;;;;;;;11.60;2.97;;;5.60;99.90;;;;;;4163112;28;20098;-81
2021/01/19 05:15:51;;;;;;;9.25;2.80;;;5.60;99.90;;;;;;4151010;28;20742;-81
2021/01/19 05:17:54;;;;;;;7.93;2.33;;;5.60;99.90;;;;;;4146953;28;20034;-81
2021/01/19 05:19:56;;;;;;;;;;;5.60;99.90;;;;;;4147981;28;20058;-81
2021/01/19 05:21:56;;;;;;;19.05;2.45;;;5.60;99.90;;;;;;4169476;28;20429;-81
2021/01/19 05:23:57;;;;;;;8.60;2.72;;;5.60;99.90;;;;;;4149924;28;20038;-81
2021/01/19 05:25:59;;;;;;;8.65;2.47;;;5.60;99.90;;;;;;4165303;28;20060;-81
2021/01/19 05:28:00;;;;;;;9.35;2.60;;;5.60;99.90;;;;;;4164268;28;20056;-81
2021/01/19 05:30:04;;;;;;;13.23;2.10;;;5.70;99.90;;;;;;4163336;28;20112;-81
2021/01/19 05:32:04;;;;;;;9.55;2.47;;;5.70;99.90;;;;;;4146309;28;20045;-81
2021/01/19 05:34:08;;;;;;;9.05;2.17;;;5.70;99.90;;;;;;4162301;28;20508;-81
2021/01/19 05:36:15;;;;;;;9.77;2.40;;;5.70;99.90;;;;;;4166626;28;20034;-81
2021/01/19 05:38:15;;;;;;;5.70;1.92;;;5.70;99.90;;;;;;4146504;28;20172;-81
2021/01/19 05:40:16;;;;;;;8.43;2.30;;;5.70;99.90;;;;;;4163968;28;20034;-81
2021/01/19 05:42:22;;;;;;;7.55;2.13;;;5.70;99.90;;;;;;4162346;28;20645;-81
2021/01/19 05:44:29;;;;;;;6.85;1.90;;;5.70;99.90;;;;;;4166009;28;21380;-81
2021/01/19 05:46:31;;;;;;;10.10;2.40;;;5.80;99.90;;;;;;4164175;28;20053;-81
2021/01/19 05:48:38;;;;;;;9.17;2.40;;;5.80;99.90;;;;;;4163358;28;20110;-81
2021/01/19 05:50:40;;;;;;;6.32;2.38;;;5.70;99.90;;;;;;4150827;28;20109;-81
2021/01/19 05:52:42;;;;;;;10.90;2.53;;;5.80;99.90;;;;;;4162009;28;20052;-81
2021/01/19 05:54:48;;;;;;;3.40;1.80;;;5.80;99.90;;;;;;4164689;28;20037;-81
2021/01/19 05:57:08;;;;;;;8.07;2.33;;;5.80;99.90;;;;;;4146521;28;20034;-81
2021/01/19 05:59:11;;;;;;;5.70;2.08;;;5.80;99.90;;;;;;4162132;28;20033;-81
2021/01/19 06:01:28;;;;;;;8.13;3.03;;;5.80;99.90;;;;;;4161936;28;20057;-81
2021/01/19 06:03:30;;;;;;;12.63;5.22;;;5.80;99.90;;;;;;4153647;28;20029;-81
2021/01/19 06:05:31;;;;;;;7.60;2.88;;;5.80;99.90;;;;;;4182399;28;20037;-81
2021/01/19 06:07:34;;;;;;;12.63;5.10;;;5.80;99.90;;;;;;4146510;28;20026;-81
2021/01/19 06:09:36;;;;;;;7.97;2.75;;;5.80;99.90;;;;;;4169941;28;20074;-81
2021/01/19 06:11:37;;;;;;;6.50;1.90;;;5.80;99.90;;;;;;4172613;28;20044;-81
2021/01/19 06:13:38;;;;;;;6.60;2.30;;;5.80;99.90;;;;;;4145885;28;20494;-81
2021/01/19 06:15:40;;;;;;;7.03;2.10;;;5.80;99.90;;;;;;4145715;28;20071;-81
2021/01/19 06:17:41;;;;;;;6.95;1.80;;;5.80;99.90;;;;;;4162595;28;20040;-81
2021/01/19 06:19:43;;;;;;;4.68;1.60;;;5.90;99.90;;;;;;4179977;28;20056;-81
2021/01/19 06:21:44;;;;;;;5.57;1.92;;;5.90;99.90;;;;;;4146510;28;20069;-81
2021/01/19 06:23:46;;;;;;;7.30;2.10;;;5.90;99.90;;;;;;4157954;28;20064;-81
2021/01/19 06:25:51;;;;;;;4.90;1.70;;;5.90;99.90;;;;;;4162402;28;20128;-81
2021/01/19 06:27:51;;;;;;;4.60;1.80;;;5.90;99.90;;;;;;4168336;28;20032;-81
2021/01/19 06:30:00;;;;;;;4.82;2.00;;;5.90;99.90;;;;;;4169984;28;20501;-82
2021/01/19 06:32:04;;;;;;;7.07;2.20;;;5.90;99.90;;;;;;4145483;28;20041;-82
2021/01/19 06:34:06;;;;;;;7.03;1.95;;;5.90;99.90;;;;;;4172225;28;20025;-82
2021/01/19 06:36:08;;;;;;;4.57;1.58;;;5.90;99.90;;;;;;4147380;28;20439;-82
2021/01/19 06:38:19;;;;;;;6.20;1.77;;;5.90;99.90;;;;;;4157408;28;20045;-82
2021/01/19 06:40:21;;;;;;;5.75;1.40;;;5.90;99.90;;;;;;4163836;28;20107;-82
2021/01/19 06:42:26;;;;;;;;;;;5.90;99.90;;;;;;4149283;28;20103;-82
2021/01/19 06:44:34;;;;;;;4.88;1.55;;;5.90;99.90;;;;;;4166120;28;19960;-82
2021/01/19 06:46:44;;;;;;;3.80;1.73;;;5.90;99.90;;;;;;4161828;28;20076;-82
2021/01/19 06:49:14;;;;;;;4.72;1.60;;;5.90;99.90;;;;;;4167167;28;20064;-83
2021/01/19 06:51:22;;;;;;;4.35;1.52;;;6.00;99.90;;;;;;4174865;28;20033;-83
2021/01/19 06:53:33;;;;;;;6.95;1.77;;;6.00;99.90;;;;;;4163470;28;20043;-83
2021/01/19 06:55:47;;;;;;;8.55;1.65;;;6.00;99.90;;;;;;4161622;28;20038;-83
2021/01/19 06:57:48;;;;;;;4.72;1.27;;;6.00;99.90;;;;;;4148525;28;20104;-83
2021/01/19 07:00:10;;;;;;;4.15;1.73;;;6.00;99.90;;;;;;4166337;28;20041;-83
2021/01/19 07:02:17;;;;;;;2.30;1.30;;;5.90;99.90;;;;;;4159368;28;20160;-83
2021/01/19 07:04:23;;;;;;;3.22;1.30;;;5.90;99.90;;;;;;4174970;28;20103;-83
2021/01/19 07:06:51;;;;;;;6.05;1.58;;;5.90;99.90;;;;;;4162521;28;20059;-83
2021/01/19 07:09:13;;;;;;;6.20;1.27;;;5.90;99.90;;;;;;4131949;28;20113;-83
2021/01/19 07:11:49;;;;;;;5.93;1.80;;;6.00;99.90;;;;;;4139395;28;20430;-83
2021/01/19 07:14:13;;;;;;;5.78;1.60;;;5.90;99.90;;;;;;4151598;28;20405;-83
2021/01/19 07:16:31;;;;;;;6.00;1.60;;;5.90;99.90;;;;;;4172535;28;20022;-83
2021/01/19 07:18:57;;;;;;;3.13;1.15;;;6.00;99.90;;;;;;4166594;28;20540;-83
2021/01/19 07:21:04;;;;;;;4.32;1.60;;;6.00;99.90;;;;;;4171426;28;20029;-83
2021/01/19 07:23:46;;;;;;;3.67;1.20;;;5.90;99.90;;;;;;4174569;28;20029;-83
2021/01/19 07:25:46;;;;;;;4.30;1.45;;;5.90;99.90;;;;;;4154617;28;20040;-83
2021/01/19 07:27:47;;;;;;;2.65;1.10;;;6.00;99.90;;;;;;4176985;28;20457;-83
2021/01/19 07:29:48;;;;;;;6.45;1.35;;;6.00;99.90;;;;;;4161004;28;20528;-83
2021/01/19 07:31:50;;;;;;;1.65;0.95;;;6.00;99.90;;;;;;4180912;28;20502;-83
2021/01/19 07:33:54;;;;;;;2.13;1.08;;;6.00;99.90;;;;;;4181448;28;20033;-83
2021/01/19 07:35:57;;;;;;;5.97;1.45;;;6.00;99.90;;;;;;4177478;28;20505;-83
2021/01/19 07:37:58;;;;;;;;;;;6.00;99.90;;;;;;4163870;28;20041;-83
2021/01/19 07:39:59;;;;;;;2.25;1.30;;;6.00;99.90;;;;;;4173454;28;19912;-83
2021/01/19 07:42:10;;;;;;;2.75;1.27;;;6.00;99.90;;;;;;4165877;28;20037;-83
2021/01/19 07:44:32;;;;;;;1.85;0.90;;;6.00;99.90;;;;;;4162741;28;20120;-83
2021/01/19 07:46:43;;;;;;;6.47;1.55;;;6.00;99.90;;;;;;4163747;28;20197;-83
2021/01/19 07:48:46;;;;;;;3.63;1.30;;;6.00;99.90;;;;;;4159053;28;20087;-83
2021/01/19 07:50:50;;;;;;;4.43;0.95;;;6.00;99.90;;;;;;4151656;28;20037;-82
2021/01/19 07:52:53;;;;;;;2.85;0.90;;;6.00;99.90;;;;;;4184278;28;20079;-83
2021/01/19 07:54:53;;;;;;;;;;;6.00;99.90;;;;;;4161561;28;20041;-83
2021/01/19 07:56:54;;;;;;;5.40;1.60;;;5.90;99.90;;;;;;4168853;28;19913;-83
2021/01/19 07:58:56;;;;;;;5.10;1.15;;;6.00;99.90;;;;;;4162300;28;20029;-83
2021/01/19 08:00:57;;;;;;;1.75;1.00;;;6.00;99.90;;;;;;4146828;28;20678;-83
2021/01/19 08:03:06;;;;;;;3.08;1.13;;;6.00;99.90;;;;;;4144019;28;20056;-82
2021/01/19 08:05:08;;;;;;;3.65;1.20;;;6.00;99.90;;;;;;4165489;28;20044;-82
2021/01/19 08:07:13;;;;;;;1.70;0.82;;;6.00;99.90;;;;;;4167068;28;20060;-83
2021/01/19 08:09:16;;;;;;;6.72;1.38;;;6.10;99.90;;;;;;4157224;28;20056;-83
2021/01/19 08:11:30;;;;;;;2.75;1.00;;;6.00;99.90;;;;;;4138983;28;20068;-83
2021/01/19 08:13:30;;;;;;;3.40;1.15;;;6.10;99.90;;;;;;4161064;28;20497;-83
2021/01/19 08:15:32;;;;;;;3.80;1.20;;;6.10;99.90;;;;;;4169224;28;20133;-83
2021/01/19 08:17:39;;;;;;;3.80;1.40;;;6.10;99.90;;;;;;4144648;28;20030;-83
2021/01/19 08:19:42;;;;;;;4.22;1.40;;;6.00;99.90;;;;;;4155139;28;20029;-83
2021/01/19 08:21:48;;;;;;;4.28;1.20;;;6.10;99.90;;;;;;4150546;28;20026;-83
2021/01/19 08:23:48;;;;;;;4.07;1.30;;;6.00;99.90;;;;;;4162829;28;21186;-83
2021/01/19 08:26:08;;;;;;;5.05;1.40;;;6.10;99.90;;;;;;4164466;28;20042;-83
2021/01/19 08:28:10;;;;;;;5.22;1.33;;;6.10;99.90;;;;;;4160853;28;20029;-83
2021/01/19 08:30:24;;;;;;;6.67;1.40;;;6.10;99.90;;;;;;4165368;28;20030;-83
2021/01/19 08:32:27;;;;;;;5.60;1.60;;;6.10;99.90;;;;;;4159059;28;20038;-83
2021/01/19 08:34:42;;;;;;;4.68;1.58;;;6.10;99.90;;;;;;4150795;28;20045;-83
2021/01/19 08:36:44;;;;;;;7.63;1.75;;;6.10;99.90;;;;;;4144044;28;20609;-83
2021/01/19 08:38:47;;;;;;;3.70;1.15;;;6.10;99.90;;;;;;4161753;28;20037;-83
2021/01/19 08:40:48;;;;;;;3.38;1.55;;;6.10;99.90;;;;;;4148053;28;20034;-83
2021/01/19 08:42:48;;;;;;;4.60;1.33;;;6.00;99.90;;;;;;4175142;28;20056;-83
2021/01/19 08:44:57;;;;;;;5.00;1.40;;;6.10;99.90;;;;;;4147509;28;20080;-83
2021/01/19 08:46:59;;;;;;;3.58;1.20;;;6.20;99.90;;;;;;4174853;28;20448;-83
2021/01/19 08:49:02;;;;;;;4.95;1.90;;;6.10;99.90;;;;;;4178274;28;20025;-83
2021/01/19 08:51:19;;;;;;;4.88;1.35;;;6.10;99.90;;;;;;4164910;28;20115;-82
2021/01/19 08:53:32;;;;;;;4.55;1.02;;;6.10;99.90;;;;;;4143198;28;20041;-82
2021/01/19 08:55:33;;;;;;;5.30;1.90;;;6.10;99.90;;;;;;4149484;28;20050;-82
2021/01/19 08:57:34;;;;;;;2.78;1.05;;;6.10;99.90;;;;;;4169017;28;20025;-83
2021/01/19 08:59:52;;;;;;;4.20;1.20;;;6.20;99.90;;;;;;4158165;28;20042;-83
2021/01/19 09:02:03;;;;;;;7.55;1.60;;;6.10;99.90;;;;;;4164206;28;20058;-84
2021/01/19 09:04:28;;;;;;;3.05;1.38;;;6.10;99.90;;;;;;4164044;28;20029;-84
2021/01/19 09:06:44;;;;;;;3.78;1.33;;;6.20;99.90;;;;;;4165367;28;20493;-84
2021/01/19 09:08:45;;;;;;;3.85;1.58;;;6.20;99.90;;;;;;4149556;28;20049;-83
2021/01/19 09:10:46;;;;;;;4.28;1.35;;;6.20;99.90;;;;;;4181791;28;20045;-84
2021/01/19 09:12:47;;;;;;;4.63;1.35;;;6.20;99.90;;;;;;4172932;28;20512;-84
2021/01/19 09:14:51;;;;;;;2.95;1.20;;;6.20;99.90;;;;;;4169840;28;20037;-84
2021/01/19 09:16:53;;;;;;;4.35;1.38;;;6.20;99.90;;;;;;4154231;28;20042;-83
2021/01/19 09:18:55;;;;;;;2.63;1.13;;;6.20;99.90;;;;;;4139825;28;20038;-84
2021/01/19 09:21:13;;;;;;;4.68;1.40;;;6.20;99.90;;;;;;4164980;28;20140;-84
2021/01/19 09:23:16;;;;;;;3.30;1.30;;;6.30;99.90;;;;;;4149883;28;20026;-84
2021/01/19 09:25:30;;;;;;;4.28;1.42;;;6.30;99.90;;;;;;4154195;28;20118;-84
2021/01/19 09:27:38;;;;;;;3.33;1.23;;;6.30;99.90;;;;;;4168613;28;20460;-83
2021/01/19 09:29:39;;;;;;;3.38;1.15;;;6.30;99.90;;;;;;4159574;28;20865;-83
2021/01/19 09:31:41;;;;;;;4.10;1.10;;;6.30;99.90;;;;;;4153974;28;20068;-84
2021/01/19 09:33:47;;;;;;;2.00;1.10;;;6.30;99.90;;;;;;4164423;28;20041;-83
2021/01/19 09:35:48;;;;;;;3.95;1.45;;;6.30;99.90;;;;;;4163862;28;20563;-83
2021/01/19 09:37:50;;;;;;;3.67;1.30;;;6.40;99.90;;;;;;4164740;28;20620;-83
2021/01/19 09:39:51;;;;;;;2.47;1.37;;;6.40;99.90;;;;;;4166662;28;20042;-84
2021/01/19 09:41:56;;;;;;;3.97;1.10;;;6.40;99.90;;;;;;4152572;28;20045;-83
2021/01/19 09:43:58;;;;;;;2.58;0.88;;;6.40;99.90;;;;;;4187473;28;20040;-84
2021/01/19 09:46:06;;;;;;;4.22;1.40;;;6.50;99.90;;;;;;4164519;28;20044;-83
2021/01/19 09:48:18;;;;;;;2.03;1.10;;;6.40;99.90;;;;;;4172564;28;20025;-83
2021/01/19 09:50:20;;;;;;;3.92;1.48;;;6.40;99.90;;;;;;4154109;28;20046;-83
2021/01/19 09:52:30;;;;;;;2.28;1.30;;;6.50;99.90;;;;;;4148589;28;20534;-83
2021/01/19 09:54:31;;;;;;;3.83;1.33;;;6.50;99.90;;;;;;4166910;28;20041;-83
2021/01/19 09:56:41;;;;;;;2.30;1.13;;;6.50;99.90;;;;;;4165912;28;20053;-83
2021/01/19 09:59:05;;;;;;;4.07;1.40;;;6.50;99.90;;;;;;4176353;28;20029;-83
2021/01/19 10:01:05;;;;;;;2.67;1.00;;;6.50;99.90;;;;;;4167766;28;20714;-83
2021/01/19 10:03:16;;;;;;;3.47;1.15;;;6.60;99.90;;;;;;4148491;28;20045;-83
2021/01/19 10:05:21;;;;;;;1.48;1.08;;;6.60;99.90;;;;;;4144234;28;20033;-83
2021/01/19 10:07:27;;;;;;;2.38;1.20;;;6.60;99.90;;;;;;4154808;28;20051;-83
2021/01/19 10:09:28;;;;;;;2.28;1.33;;;6.60;99.90;;;;;;4166937;28;20562;-83
2021/01/19 10:11:35;;;;;;;2.90;1.02;;;6.60;99.90;;;;;;4164085;28;20045;-83
2021/01/19 10:13:36;;;;;;;2.05;1.10;;;6.60;99.90;;;;;;4170431;28;20026;-83
2021/01/19 10:15:40;;;;;;;4.88;1.77;;;6.60;99.90;;;;;;4164919;28;20113;-84
2021/01/19 10:17:41;;;;;;;1.48;0.95;;;6.70;99.90;;;;;;4146920;28;20581;-83
2021/01/19 10:19:41;;;;;;;2.78;1.00;;;6.70;99.90;;;;;;4164273;28;20032;-83
2021/01/19 10:21:48;;;;;;;2.35;0.93;;;6.70;99.90;;;;;;4165835;28;20038;-83
2021/01/19 10:23:50;;;;;;;1.10;0.70;;;6.70;99.90;;;;;;4164537;28;20049;-83
2021/01/19 10:26:12;;;;;;;1.70;0.80;;;6.70;99.90;;;;;;4189737;28;20063;-83
2021/01/19 10:28:15;;;;;;;3.83;0.80;;;6.80;99.90;;;;;;4160190;28;20619;-83
2021/01/19 10:30:15;;;;;;;3.53;0.88;;;6.70;99.90;;;;;;4144943;28;20057;-83
2021/01/19 10:32:20;;;;;;;3.25;1.35;;;6.80;99.90;;;;;;4171428;28;20029;-84
2021/01/19 10:34:21;;;;;;;1.65;0.90;;;6.80;99.90;;;;;;4162498;28;20036;-83
2021/01/19 10:36:30;;;;;;;3.35;0.90;;;6.80;99.90;;;;;;4152397;28;20048;-83
2021/01/19 10:38:38;;;;;;;1.02;0.70;;;6.80;99.90;;;;;;4157772;28;20030;-83
2021/01/19 10:40:53;;;;;;;2.35;0.93;;;6.80;99.90;;;;;;4146190;28;20382;-83
2021/01/19 10:43:10;;;;;;;5.53;1.00;;;6.80;99.90;;;;;;4177580;28;20025;-83
2021/01/19 10:45:11;;;;;;;2.13;0.93;;;6.90;99.90;;;;;;4162793;28;20123;-83
2021/01/19 10:47:42;;;;;;;4.63;0.93;;;6.90;99.90;;;;;;4163399;28;20104;-83
2021/01/19 10:49:42;;;;;;;1.80;1.15;;;6.90;99.90;;;;;;4167116;28;20982;-83
2021/01/19 10:51:48;;;;;;;3.40;1.92;;;6.90;99.90;;;;;;4146139;28;20105;-83
2021/01/19 10:54:22;;;;;;;2.35;0.95;;;6.90;99.90;;;;;;4157701;28;20077;-83
2021/01/19 10:56:23;;;;;;;2.22;0.93;;;6.90;99.90;;;;;;4104051;28;20053;-84
2021/01/19 10:58:23;;;;;;;4.75;1.30;;;6.90;99.90;;;;;;4166555;28;20528;-83
2021/01/19 11:00:28;;;;;;;2.38;0.90;;;7.00;99.90;;;;;;4175561;28;20035;-83
2021/01/19 11:02:37;;;;;;;2.78;1.08;;;7.00;99.90;;;;;;4163963;28;20029;-83
2021/01/19 11:04:37;;;;;;;2.28;0.90;;;7.00;99.90;;;;;;4172206;28;20568;-84
2021/01/19 11:06:39;;;;;;;0.77;0.70;;;7.00;99.90;;;;;;4180325;28;20044;-83